sensor_id;sensor_type;location;lat;lon;timestamp;pressure;altitude;pressure_sealevel;temperature;humidity
51287;BME280;37364;46.974;18.916;2023-12-20T00:00:13;149747.50;;;-2.43;100.00
51287;BME280;37364;46.974;18.916;2023-12-20T00:02:43;149756.50;;;-2.39;100.00
51287;BME280;37364;46.974;18.916;2023-12-20T00:05:17;149737.25;;;-2.47;100.00
51287;BME280;37364;46.974;18.916;2023-12-20T00:07:47;149739.81;;;-2.46;100.00
51287;BME280;37364;46.974;18.916;2023-12-20T00:10:17;149741.06;;;-2.45;100.00
51287;BME280;37364;46.974;18.916;2023-12-20T00:12:48;149743.66;;;-2.44;100.00
51287;BME280;37364;46.974;18.916;2023-12-20T00:15:20;149757.75;;;-2.39;100.00
51287;BME280;37364;46.974;18.916;2023-12-20T00:17:51;149742.38;;;-2.45;100.00
51287;BME280;37364;46.974;18.916;2023-12-20T00:20:21;149739.81;;;-2.46;100.00
51287;BME280;37364;46.974;18.916;2023-12-20T00:22:51;149755.19;;;-2.40;100.00
51287;BME280;37364;46.974;18.916;2023-12-20T00:25:21;149752.63;;;-2.41;100.00
51287;BME280;37364;46.974;18.916;2023-12-20T00:27:48;149737.25;;;-2.47;100.00
51287;BME280;37364;46.974;18.916;2023-12-20T00:30:21;149739.81;;;-2.46;100.00
51287;BME280;37364;46.974;18.916;2023-12-20T00:32:52;149750.06;;;-2.42;100.00
51287;BME280;37364;46.974;18.916;2023-12-20T00:35:22;149733.41;;;-2.48;100.00
51287;BME280;37364;46.974;18.916;2023-12-20T00:37:52;149732.13;;;-2.49;100.00
51287;BME280;37364;46.974;18.916;2023-12-20T00:40:25;149730.81;;;-2.49;100.00
51287;BME280;37364;46.974;18.916;2023-12-20T00:42:55;149738.53;;;-2.46;100.00
51287;BME280;37364;46.974;18.916;2023-12-20T00:45:28;149716.72;;;-2.55;100.00
51287;BME280;37364;46.974;18.916;2023-12-20T00:47:58;149730.81;;;-2.49;100.00
51287;BME280;37364;46.974;18.916;2023-12-20T00:50:28;149705.19;;;-2.60;100.00
51287;BME280;37364;46.974;18.916;2023-12-20T00:52:58;149694.94;;;-2.64;100.00
51287;BME280;37364;46.974;18.916;2023-12-20T00:55:28;149705.19;;;-2.60;100.00
51287;BME280;37364;46.974;18.916;2023-12-20T00:57:58;149716.72;;;-2.55;100.00
51287;BME280;37364;46.974;18.916;2023-12-20T01:00:32;149728.28;;;-2.50;100.00
51287;BME280;37364;46.974;18.916;2023-12-20T01:03:02;149741.06;;;-2.45;100.00
51287;BME280;37364;46.974;18.916;2023-12-20T01:05:33;149738.53;;;-2.46;100.00
51287;BME280;37364;46.974;18.916;2023-12-20T01:08:04;149730.81;;;-2.49;100.00
51287;BME280;37364;46.974;18.916;2023-12-20T01:10:34;149707.78;;;-2.59;100.00
51287;BME280;37364;46.974;18.916;2023-12-20T01:13:04;149727.00;;;-2.51;100.00
51287;BME280;37364;46.974;18.916;2023-12-20T01:15:38;149716.72;;;-2.55;100.00
51287;BME280;37364;46.974;18.916;2023-12-20T01:18:08;149714.19;;;-2.56;100.00
51287;BME280;37364;46.974;18.916;2023-12-20T01:20:38;149739.81;;;-2.46;100.00
51287;BME280;37364;46.974;18.916;2023-12-20T01:23:09;149712.91;;;-2.56;100.00
51287;BME280;37364;46.974;18.916;2023-12-20T01:25:39;149705.19;;;-2.60;100.00
51287;BME280;37364;46.974;18.916;2023-12-20T01:28:10;149700.06;;;-2.62;100.00
51287;BME280;37364;46.974;18.916;2023-12-20T01:30:43;149679.59;;;-2.70;100.00
51287;BME280;37364;46.974;18.916;2023-12-20T01:33:13;149701.34;;;-2.61;100.00
51287;BME280;37364;46.974;18.916;2023-12-20T01:35:43;149705.19;;;-2.60;100.00
51287;BME280;37364;46.974;18.916;2023-12-20T01:38:13;149711.59;;;-2.57;100.00
51287;BME280;37364;46.974;18.916;2023-12-20T01:40:45;149734.69;;;-2.48;100.00
51287;BME280;37364;46.974;18.916;2023-12-20T01:43:15;149723.16;;;-2.52;100.00
51287;BME280;37364;46.974;18.916;2023-12-20T01:45:49;149728.28;;;-2.50;100.00
51287;BME280;37364;46.974;18.916;2023-12-20T01:48:20;149743.66;;;-2.44;100.00
51287;BME280;37364;46.974;18.916;2023-12-20T01:50:51;149729.56;;;-2.50;100.00
51287;BME280;37364;46.974;18.916;2023-12-20T01:53:23;149727.00;;;-2.51;100.00
51287;BME280;37364;46.974;18.916;2023-12-20T01:55:55;149725.69;;;-2.51;100.00
51287;BME280;37364;46.974;18.916;2023-12-20T01:58:26;149719.31;;;-2.54;100.00
51287;BME280;37364;46.974;18.916;2023-12-20T02:00:59;149682.13;;;-2.69;100.00
51287;BME280;37364;46.974;18.916;2023-12-20T02:03:29;149646.25;;;-2.83;100.00
51287;BME280;37364;46.974;18.916;2023-12-20T02:05:59;149645.00;;;-2.84;100.00
51287;BME280;37364;46.974;18.916;2023-12-20T02:08:29;149700.06;;;-2.62;100.00
51287;BME280;37364;46.974;18.916;2023-12-20T02:11:00;149653.97;;;-2.80;100.00
51287;BME280;37364;46.974;18.916;2023-12-20T02:13:30;149641.13;;;-2.85;100.00
51287;BME280;37364;46.974;18.916;2023-12-20T02:16:03;149652.66;;;-2.81;100.00
51287;BME280;37364;46.974;18.916;2023-12-20T02:18:34;149655.22;;;-2.80;100.00
51287;BME280;37364;46.974;18.916;2023-12-20T02:21:04;149669.34;;;-2.74;100.00
51287;BME280;37364;46.974;18.916;2023-12-20T02:23:37;149662.88;;;-2.76;100.00
51287;BME280;37364;46.974;18.916;2023-12-20T02:26:07;149648.84;;;-2.82;100.00
51287;BME280;37364;46.974;18.916;2023-12-20T02:28:38;149651.38;;;-2.81;100.00
51287;BME280;37364;46.974;18.916;2023-12-20T02:31:08;149614.19;;;-2.96;100.00
51287;BME280;37364;46.974;18.916;2023-12-20T02:33:38;149624.50;;;-2.92;100.00
51287;BME280;37364;46.974;18.916;2023-12-20T02:36:09;149629.63;;;-2.90;100.00
51287;BME280;37364;46.974;18.916;2023-12-20T02:38:42;149628.28;;;-2.90;100.00
51287;BME280;37364;46.974;18.916;2023-12-20T02:41:12;149619.38;;;-2.94;100.00
51287;BME280;37364;46.974;18.916;2023-12-20T02:43:43;149618.06;;;-2.94;100.00
51287;BME280;37364;46.974;18.916;2023-12-20T02:46:15;149614.19;;;-2.96;100.00
51287;BME280;37364;46.974;18.916;2023-12-20T02:48:46;149621.91;;;-2.93;100.00
51287;BME280;37364;46.974;18.916;2023-12-20T02:51:16;149603.97;;;-3.00;100.00
51287;BME280;37364;46.974;18.916;2023-12-20T02:53:49;149607.81;;;-2.99;100.00
51287;BME280;37364;46.974;18.916;2023-12-20T02:56:19;149586.06;;;-3.07;100.00
51287;BME280;37364;46.974;18.916;2023-12-20T02:58:49;149609.06;;;-2.98;100.00
51287;BME280;37364;46.974;18.916;2023-12-20T03:01:19;149614.19;;;-2.96;100.00
51287;BME280;37364;46.974;18.916;2023-12-20T03:03:49;149575.81;;;-3.11;100.00
51287;BME280;37364;46.974;18.916;2023-12-20T03:06:20;149614.19;;;-2.96;100.00
51287;BME280;37364;46.974;18.916;2023-12-20T03:08:52;149629.63;;;-2.90;100.00
51287;BME280;37364;46.974;18.916;2023-12-20T03:11:26;149601.41;;;-3.01;100.00
51287;BME280;37364;46.974;18.916;2023-12-20T03:13:56;149616.78;;;-2.95;100.00
51287;BME280;37364;46.974;18.916;2023-12-20T03:16:27;149601.41;;;-3.01;100.00
51287;BME280;37364;46.974;18.916;2023-12-20T03:19:01;149605.28;;;-3.00;100.00
51287;BME280;37364;46.974;18.916;2023-12-20T03:21:31;149556.59;;;-3.19;100.00
51287;BME280;37364;46.974;18.916;2023-12-20T03:24:04;149554.00;;;-3.20;100.00
51287;BME280;37364;46.974;18.916;2023-12-20T03:26:34;149542.50;;;-3.25;100.00
51287;BME280;37364;46.974;18.916;2023-12-20T03:29:04;149542.50;;;-3.25;100.00
51287;BME280;37364;46.974;18.916;2023-12-20T03:31:34;149583.47;;;-3.08;100.00
51287;BME280;37364;46.974;18.916;2023-12-20T03:34:04;149562.97;;;-3.16;100.00
51287;BME280;37364;46.974;18.916;2023-12-20T03:36:35;149556.59;;;-3.19;100.00
51287;BME280;37364;46.974;18.916;2023-12-20T03:39:11;149522.00;;;-3.33;100.00
51287;BME280;37364;46.974;18.916;2023-12-20T03:41:41;149557.88;;;-3.19;100.00
51287;BME280;37364;46.974;18.916;2023-12-20T03:44:11;149554.00;;;-3.20;100.00
51287;BME280;37364;46.974;18.916;2023-12-20T03:46:41;149575.81;;;-3.11;100.00
51287;BME280;37364;46.974;18.916;2023-12-20T03:49:12;149574.50;;;-3.12;100.00
51287;BME280;37364;46.974;18.916;2023-12-20T03:51:42;149566.84;;;-3.15;100.00
51287;BME280;37364;46.974;18.916;2023-12-20T03:54:15;149586.06;;;-3.07;100.00
51287;BME280;37364;46.974;18.916;2023-12-20T03:56:45;149591.19;;;-3.05;100.00
51287;BME280;37364;46.974;18.916;2023-12-20T03:59:15;149584.75;;;-3.08;100.00
51287;BME280;37364;46.974;18.916;2023-12-20T04:01:45;149595.03;;;-3.04;100.00
51287;BME280;37364;46.974;18.916;2023-12-20T04:04:15;149609.06;;;-2.98;100.00
51287;BME280;37364;46.974;18.916;2023-12-20T04:06:46;149582.19;;;-3.09;100.00
51287;BME280;37364;46.974;18.916;2023-12-20T04:09:18;149596.28;;;-3.03;100.00
51287;BME280;37364;46.974;18.916;2023-12-20T04:11:48;149596.28;;;-3.03;100.00
51287;BME280;37364;46.974;18.916;2023-12-20T04:14:18;149593.72;;;-3.04;100.00
51287;BME280;37364;46.974;18.916;2023-12-20T04:16:48;149565.56;;;-3.15;100.00
51287;BME280;37364;46.974;18.916;2023-12-20T04:19:18;149560.41;;;-3.18;100.00
51287;BME280;37364;46.974;18.916;2023-12-20T04:21:49;149596.28;;;-3.03;100.00
51287;BME280;37364;46.974;18.916;2023-12-20T04:24:21;149619.38;;;-2.94;100.00
51287;BME280;37364;46.974;18.916;2023-12-20T04:26:51;149595.03;;;-3.04;100.00
51287;BME280;37364;46.974;18.916;2023-12-20T04:29:21;149609.06;;;-2.98;100.00
51287;BME280;37364;46.974;18.916;2023-12-20T04:31:51;149601.41;;;-3.01;100.00
51287;BME280;37364;46.974;18.916;2023-12-20T04:34:22;149618.06;;;-2.94;100.00
51287;BME280;37364;46.974;18.916;2023-12-20T04:36:53;149616.78;;;-2.95;100.00
51287;BME280;37364;46.974;18.916;2023-12-20T04:39:26;149601.41;;;-3.01;100.00
51287;BME280;37364;46.974;18.916;2023-12-20T04:41:56;149620.63;;;-2.93;100.00
51287;BME280;37364;46.974;18.916;2023-12-20T04:44:26;149629.63;;;-2.90;100.00
51287;BME280;37364;46.974;18.916;2023-12-20T04:46:56;149634.75;;;-2.88;100.00
51287;BME280;37364;46.974;18.916;2023-12-20T04:49:27;149642.41;;;-2.85;100.00
51287;BME280;37364;46.974;18.916;2023-12-20T04:51:57;149639.88;;;-2.86;100.00
51287;BME280;37364;46.974;18.916;2023-12-20T04:54:29;149627.03;;;-2.91;100.00
51287;BME280;37364;46.974;18.916;2023-12-20T04:57:00;149632.16;;;-2.89;100.00
51287;BME280;37364;46.974;18.916;2023-12-20T04:59:30;149646.25;;;-2.83;100.00
51287;BME280;37364;46.974;18.916;2023-12-20T05:02:00;149665.47;;;-2.75;100.00
51287;BME280;37364;46.974;18.916;2023-12-20T05:04:30;149661.63;;;-2.77;100.00
51287;BME280;37364;46.974;18.916;2023-12-20T05:07:00;149645.00;;;-2.84;100.00
51287;BME280;37364;46.974;18.916;2023-12-20T05:09:35;149652.66;;;-2.81;100.00
51287;BME280;37364;46.974;18.916;2023-12-20T05:12:06;149627.03;;;-2.91;100.00
51287;BME280;37364;46.974;18.916;2023-12-20T05:14:36;149632.16;;;-2.89;100.00
51287;BME280;37364;46.974;18.916;2023-12-20T05:17:06;149645.00;;;-2.84;100.00
51287;BME280;37364;46.974;18.916;2023-12-20T05:19:36;149638.53;;;-2.86;100.00
51287;BME280;37364;46.974;18.916;2023-12-20T05:22:07;149632.16;;;-2.89;100.00
51287;BME280;37364;46.974;18.916;2023-12-20T05:24:39;149636.00;;;-2.87;100.00
51287;BME280;37364;46.974;18.916;2023-12-20T05:27:09;149624.50;;;-2.92;100.00
51287;BME280;37364;46.974;18.916;2023-12-20T05:29:40;149657.78;;;-2.79;100.00
51287;BME280;37364;46.974;18.916;2023-12-20T05:32:10;149655.22;;;-2.80;100.00
51287;BME280;37364;46.974;18.916;2023-12-20T05:34:40;149653.97;;;-2.80;100.00
51287;BME280;37364;46.974;18.916;2023-12-20T05:37:10;149647.53;;;-2.83;100.00
51287;BME280;37364;46.974;18.916;2023-12-20T05:39:43;149647.53;;;-2.83;100.00
51287;BME280;37364;46.974;18.916;2023-12-20T05:42:13;149660.34;;;-2.78;100.00
51287;BME280;37364;46.974;18.916;2023-12-20T05:44:43;149675.72;;;-2.71;100.00
51287;BME280;37364;46.974;18.916;2023-12-20T05:47:14;149655.22;;;-2.80;100.00
51287;BME280;37364;46.974;18.916;2023-12-20T05:49:45;149671.88;;;-2.73;100.00
51287;BME280;37364;46.974;18.916;2023-12-20T05:52:17;149680.84;;;-2.69;100.00
51287;BME280;37364;46.974;18.916;2023-12-20T05:54:50;149693.69;;;-2.64;100.00
51287;BME280;37364;46.974;18.916;2023-12-20T05:57:20;149679.59;;;-2.70;100.00
51287;BME280;37364;46.974;18.916;2023-12-20T05:59:50;149689.81;;;-2.66;100.00
51287;BME280;37364;46.974;18.916;2023-12-20T06:02:20;149709.06;;;-2.58;100.00
51287;BME280;37364;46.974;18.916;2023-12-20T06:04:50;149711.59;;;-2.57;100.00
51287;BME280;37364;46.974;18.916;2023-12-20T06:07:20;149729.56;;;-2.50;100.00
51287;BME280;37364;46.974;18.916;2023-12-20T06:09:53;149712.91;;;-2.56;100.00
51287;BME280;37364;46.974;18.916;2023-12-20T06:12:24;149724.44;;;-2.52;100.00
51287;BME280;37364;46.974;18.916;2023-12-20T06:14:56;149747.50;;;-2.43;100.00
51287;BME280;37364;46.974;18.916;2023-12-20T06:17:26;149742.38;;;-2.45;100.00
51287;BME280;37364;46.974;18.916;2023-12-20T06:19:57;149766.75;;;-2.35;100.00
51287;BME280;37364;46.974;18.916;2023-12-20T06:22:28;149765.41;;;-2.35;100.00
51287;BME280;37364;46.974;18.916;2023-12-20T06:25:01;149755.19;;;-2.40;100.00
51287;BME280;37364;46.974;18.916;2023-12-20T06:27:31;149682.13;;;-2.69;100.00
51287;BME280;37364;46.974;18.916;2023-12-20T06:30:01;149678.31;;;-2.70;100.00
51287;BME280;37364;46.974;18.916;2023-12-20T06:32:31;149709.06;;;-2.58;100.00
51287;BME280;37364;46.974;18.916;2023-12-20T06:35:02;149705.19;;;-2.60;100.00
51287;BME280;37364;46.974;18.916;2023-12-20T06:37:32;149691.09;;;-2.65;100.00
51287;BME280;37364;46.974;18.916;2023-12-20T06:40:06;149680.84;;;-2.69;100.00
51287;BME280;37364;46.974;18.916;2023-12-20T06:42:44;149693.69;;;-2.64;100.00
51287;BME280;37364;46.974;18.916;2023-12-20T06:45:31;149733.41;;;-2.48;100.00
51287;BME280;37364;46.974;18.916;2023-12-20T06:48:01;149755.19;;;-2.40;100.00
51287;BME280;37364;46.974;18.916;2023-12-20T06:50:32;149783.38;;;-2.28;100.00
51287;BME280;37364;46.974;18.916;2023-12-20T06:53:07;149780.84;;;-2.29;100.00
51287;BME280;37364;46.974;18.916;2023-12-20T06:55:39;149771.88;;;-2.33;100.00
51287;BME280;37364;46.974;18.916;2023-12-20T06:58:09;149805.16;;;-2.20;100.00
51287;BME280;37364;46.974;18.916;2023-12-20T07:00:40;149809.00;;;-2.18;100.00
51287;BME280;37364;46.974;18.916;2023-12-20T07:03:14;149770.56;;;-2.33;100.00
51287;BME280;37364;46.974;18.916;2023-12-20T07:05:44;149793.63;;;-2.24;100.00
51287;BME280;37364;46.974;18.916;2023-12-20T07:08:14;149792.38;;;-2.25;100.00
51287;BME280;37364;46.974;18.916;2023-12-20T07:10:47;149801.34;;;-2.21;100.00
51287;BME280;37364;46.974;18.916;2023-12-20T07:13:16;149801.34;;;-2.21;100.00
51287;BME280;37364;46.974;18.916;2023-12-20T07:15:47;149818.00;;;-2.14;100.00
51287;BME280;37364;46.974;18.916;2023-12-20T07:18:17;149787.25;;;-2.27;100.00
51287;BME280;37364;46.974;18.916;2023-12-20T07:20:48;149802.63;;;-2.21;100.00
51287;BME280;37364;46.974;18.916;2023-12-20T07:23:18;149784.66;;;-2.28;100.00
51287;BME280;37364;46.974;18.916;2023-12-20T07:25:51;149812.88;;;-2.16;100.00
51287;BME280;37364;46.974;18.916;2023-12-20T07:28:21;149825.72;;;-2.11;100.00
51287;BME280;37364;46.974;18.916;2023-12-20T07:30:52;149824.41;;;-2.12;100.00
51287;BME280;37364;46.974;18.916;2023-12-20T07:33:22;149829.53;;;-2.10;100.00
51287;BME280;37364;46.974;18.916;2023-12-20T07:35:52;149775.69;;;-2.31;100.00
51287;BME280;37364;46.974;18.916;2023-12-20T07:38:22;149750.06;;;-2.42;100.00
51287;BME280;37364;46.974;18.916;2023-12-20T07:41:04;149778.25;;;-2.30;100.00
51287;BME280;37364;46.974;18.916;2023-12-20T07:43:34;149770.56;;;-2.33;100.00
51287;BME280;37364;46.974;18.916;2023-12-20T07:46:05;149739.81;;;-2.46;100.00
51287;BME280;37364;46.974;18.916;2023-12-20T07:48:36;149824.41;;;-2.12;100.00
51287;BME280;37364;46.974;18.916;2023-12-20T07:51:09;149801.34;;;-2.21;100.00
51287;BME280;37364;46.974;18.916;2023-12-20T07:53:39;149761.63;;;-2.37;100.00
51287;BME280;37364;46.974;18.916;2023-12-20T07:56:19;149728.28;;;-2.50;100.00
51287;BME280;37364;46.974;18.916;2023-12-20T07:58:49;149694.94;;;-2.64;100.00
51287;BME280;37364;46.974;18.916;2023-12-20T08:01:23;149693.69;;;-2.64;100.00
51287;BME280;37364;46.974;18.916;2023-12-20T08:03:53;149739.81;;;-2.46;100.00
51287;BME280;37364;46.974;18.916;2023-12-20T08:06:24;149729.56;;;-2.50;100.00
51287;BME280;37364;46.974;18.916;2023-12-20T08:08:54;149729.56;;;-2.50;100.00
51287;BME280;37364;46.974;18.916;2023-12-20T08:11:37;149723.16;;;-2.52;100.00
51287;BME280;37364;46.974;18.916;2023-12-20T08:14:07;149684.72;;;-2.68;100.00
51287;BME280;37364;46.974;18.916;2023-12-20T08:16:37;149684.72;;;-2.68;100.00
51287;BME280;37364;46.974;18.916;2023-12-20T08:19:07;149729.56;;;-2.50;100.00
51287;BME280;37364;46.974;18.916;2023-12-20T08:21:38;149724.44;;;-2.52;100.00
51287;BME280;37364;46.974;18.916;2023-12-20T08:24:08;149714.19;;;-2.56;100.00
51287;BME280;37364;46.974;18.916;2023-12-20T08:26:41;149665.47;;;-2.75;100.00
51287;BME280;37364;46.974;18.916;2023-12-20T08:29:19;149662.88;;;-2.76;100.00
51287;BME280;37364;46.974;18.916;2023-12-20T08:31:52;149706.47;;;-2.59;100.00
51287;BME280;37364;46.974;18.916;2023-12-20T08:34:23;149692.38;;;-2.65;100.00
51287;BME280;37364;46.974;18.916;2023-12-20T08:36:59;149770.56;;;-2.33;100.00
51287;BME280;37364;46.974;18.916;2023-12-20T08:39:29;149762.88;;;-2.36;100.00
51287;BME280;37364;46.974;18.916;2023-12-20T08:42:09;149752.63;;;-2.41;100.00
51287;BME280;37364;46.974;18.916;2023-12-20T08:44:39;149778.25;;;-2.30;100.00
51287;BME280;37364;46.974;18.916;2023-12-20T08:47:18;149802.63;;;-2.21;100.00
51287;BME280;37364;46.974;18.916;2023-12-20T08:49:52;149788.50;;;-2.26;100.00
51287;BME280;37364;46.974;18.916;2023-12-20T08:52:29;149818.00;;;-2.14;100.00
51287;BME280;37364;46.974;18.916;2023-12-20T08:55:09;149846.22;;;-2.03;100.00
51287;BME280;37364;46.974;18.916;2023-12-20T08:57:42;149791.09;;;-2.25;100.00
51287;BME280;37364;46.974;18.916;2023-12-20T09:00:16;149821.84;;;-2.13;100.00
51287;BME280;37364;46.974;18.916;2023-12-20T09:03:01;149818.00;;;-2.14;100.00
51287;BME280;37364;46.974;18.916;2023-12-20T09:05:31;149791.09;;;-2.25;100.00
51287;BME280;37364;46.974;18.916;2023-12-20T09:08:09;149764.16;;;-2.36;100.00
51287;BME280;37364;46.974;18.916;2023-12-20T09:10:43;149821.84;;;-2.13;100.00
51287;BME280;37364;46.974;18.916;2023-12-20T09:13:15;149844.94;;;-2.04;100.00
51287;BME280;37364;46.974;18.916;2023-12-20T09:15:45;149824.41;;;-2.12;100.00
51287;BME280;37364;46.974;18.916;2023-12-20T09:18:30;149780.84;;;-2.29;100.00
51287;BME280;37364;46.974;18.916;2023-12-20T09:21:00;149816.72;;;-2.15;100.00
51287;BME280;37364;46.974;18.916;2023-12-20T09:23:40;149883.38;;;-1.88;100.00
51287;BME280;37364;46.974;18.916;2023-12-20T09:26:18;149871.84;;;-1.93;100.00
51287;BME280;37364;46.974;18.916;2023-12-20T09:29:02;149884.69;;;-1.88;100.00
51287;BME280;37364;46.974;18.916;2023-12-20T09:31:43;149935.97;;;-1.67;100.00
51287;BME280;37364;46.974;18.916;2023-12-20T09:34:28;149942.38;;;-1.65;100.00
51287;BME280;37364;46.974;18.916;2023-12-20T09:37:04;150002.69;;;-1.41;100.00
51287;BME280;37364;46.974;18.916;2023-12-20T09:39:37;149925.72;;;-1.71;100.00
51287;BME280;37364;46.974;18.916;2023-12-20T09:42:07;149989.84;;;-1.46;100.00
51287;BME280;37364;46.974;18.916;2023-12-20T09:44:43;150073.22;;;-1.12;100.00
51287;BME280;37364;46.974;18.916;2023-12-20T09:47:15;150023.19;;;-1.32;100.00
51287;BME280;37364;46.974;18.916;2023-12-20T09:49:56;149975.72;;;-1.51;100.00
51287;BME280;37364;46.974;18.916;2023-12-20T09:52:26;150060.44;;;-1.17;100.00
51287;BME280;37364;46.974;18.916;2023-12-20T09:55:03;150050.13;;;-1.22;100.00
51287;BME280;37364;46.974;18.916;2023-12-20T09:57:40;150128.41;;;-0.90;100.00
51287;BME280;37364;46.974;18.916;2023-12-20T10:00:17;150122.00;;;-0.93;100.00
51287;BME280;37364;46.974;18.916;2023-12-20T10:03:06;150082.22;;;-1.09;100.00
51287;BME280;37364;46.974;18.916;2023-12-20T10:05:37;150098.88;;;-1.02;100.00
51287;BME280;37364;46.974;18.916;2023-12-20T10:08:13;150168.22;;;-0.74;100.00
51287;BME280;37364;46.974;18.916;2023-12-20T10:10:52;150211.81;;;-0.57;100.00
51287;BME280;37364;46.974;18.916;2023-12-20T10:13:22;150215.69;;;-0.55;100.00
51287;BME280;37364;46.974;18.916;2023-12-20T10:15:59;150205.44;;;-0.60;100.00
51287;BME280;37364;46.974;18.916;2023-12-20T10:18:34;150200.28;;;-0.62;100.00
51287;BME280;37364;46.974;18.916;2023-12-20T10:21:11;150256.81;;;-0.39;100.00
51287;BME280;37364;46.974;18.916;2023-12-20T10:23:42;150296.59;;;-0.23;100.00
51287;BME280;37364;46.974;18.916;2023-12-20T10:26:19;150295.28;;;-0.24;100.00
51287;BME280;37364;46.974;18.916;2023-12-20T10:28:50;150281.19;;;-0.29;100.00
51287;BME280;37364;46.974;18.916;2023-12-20T10:31:31;150330.00;;;-0.10;100.00
51287;BME280;37364;46.974;18.916;2023-12-20T10:34:06;150382.63;;;0.11;100.00
51287;BME280;37364;46.974;18.916;2023-12-20T10:36:59;150440.44;;;0.34;100.00
51287;BME280;37364;46.974;18.916;2023-12-20T10:39:42;150490.53;;;0.54;100.00
51287;BME280;37364;46.974;18.916;2023-12-20T10:42:21;150511.09;;;0.63;100.00
51287;BME280;37364;46.974;18.916;2023-12-20T10:45:07;150482.84;;;0.51;100.00
51287;BME280;37364;46.974;18.916;2023-12-20T10:47:47;150505.94;;;0.61;100.00
51287;BME280;37364;46.974;18.916;2023-12-20T10:50:19;150520.09;;;0.66;100.00
51287;BME280;37364;46.974;18.916;2023-12-20T10:52:54;150553.50;;;0.79;100.00
51287;BME280;37364;46.974;18.916;2023-12-20T10:55:33;150558.66;;;0.82;100.00
51287;BME280;37364;46.974;18.916;2023-12-20T10:58:07;150550.97;;;0.78;100.00
51287;BME280;37364;46.974;18.916;2023-12-20T11:00:39;150572.78;;;0.87;100.00
51287;BME280;37364;46.974;18.916;2023-12-20T11:03:15;150603.63;;;0.99;100.00
51287;BME280;37364;46.974;18.916;2023-12-20T11:06:09;150631.91;;;1.11;100.00
51287;BME280;37364;46.974;18.916;2023-12-20T11:08:52;150676.91;;;1.29;100.00
51287;BME280;37364;46.974;18.916;2023-12-20T11:11:39;150682.03;;;1.31;100.00
51287;BME280;37364;46.974;18.916;2023-12-20T11:14:16;150746.31;;;1.56;100.00
51287;BME280;37364;46.974;18.916;2023-12-20T11:16:48;150822.25;;;1.87;100.00
51287;BME280;37364;46.974;18.916;2023-12-20T11:22:33;150896.84;;;2.16;100.00
51287;BME280;37364;46.974;18.916;2023-12-20T11:25:09;150944.47;;;2.35;100.00
51287;BME280;37364;46.974;18.916;2023-12-20T11:27:44;150971.47;;;2.46;100.00
51287;BME280;37364;46.974;18.916;2023-12-20T11:30:47;150990.78;;;2.54;100.00
51287;BME280;37364;46.974;18.916;2023-12-20T11:33:36;150990.78;;;2.54;100.00
51287;BME280;37364;46.974;18.916;2023-12-20T11:36:19;151034.53;;;2.71;100.00
51287;BME280;37364;46.974;18.916;2023-12-20T11:38:56;151086.00;;;2.92;100.00
51287;BME280;37364;46.974;18.916;2023-12-20T11:41:26;151105.31;;;3.00;100.00
51287;BME280;37364;46.974;18.916;2023-12-20T11:44:04;151162.00;;;3.22;100.00
51287;BME280;37364;46.974;18.916;2023-12-20T11:46:40;151200.63;;;3.38;100.00
51287;BME280;37364;46.974;18.916;2023-12-20T11:49:25;151235.38;;;3.51;100.00
51287;BME280;37364;46.974;18.916;2023-12-20T11:52:12;151263.75;;;3.63;100.00
51287;BME280;37364;46.974;18.916;2023-12-20T11:54:42;151303.66;;;3.79;100.00
51287;BME280;37364;46.974;18.916;2023-12-20T11:57:15;151319.13;;;3.85;100.00
51287;BME280;37364;46.974;18.916;2023-12-20T11:59:52;151320.41;;;3.85;100.00
51287;BME280;37364;46.974;18.916;2023-12-20T12:02:28;151344.88;;;3.95;100.00
51287;BME280;37364;46.974;18.916;2023-12-20T12:04:59;151388.69;;;4.12;100.00
51287;BME280;37364;46.974;18.916;2023-12-20T12:07:46;151377.09;;;4.08;100.00
51287;BME280;37364;46.974;18.916;2023-12-20T12:10:16;151360.31;;;4.01;100.00
51287;BME280;37364;46.974;18.916;2023-12-20T12:12:58;151393.84;;;4.14;100.00
51287;BME280;37364;46.974;18.916;2023-12-20T12:15:31;151433.78;;;4.30;100.00
51287;BME280;37364;46.974;18.916;2023-12-20T12:18:02;151544.66;;;4.74;100.00
51287;BME280;37364;46.974;18.916;2023-12-20T12:20:35;151511.13;;;4.61;100.00
51287;BME280;37364;46.974;18.916;2023-12-20T12:23:25;151533.03;;;4.70;100.00
51287;BME280;37364;46.974;18.916;2023-12-20T12:25:56;151597.47;;;4.95;100.00
51287;BME280;37364;46.974;18.916;2023-12-20T12:28:53;151588.44;;;4.92;100.00
51287;BME280;37364;46.974;18.916;2023-12-20T12:31:30;151654.22;;;5.18;100.00
51287;BME280;37364;46.974;18.916;2023-12-20T12:34:06;151654.22;;;5.18;100.00
51287;BME280;37364;46.974;18.916;2023-12-20T12:36:39;151667.09;;;5.23;100.00
51287;BME280;37364;46.974;18.916;2023-12-20T12:42:15;151701.97;;;5.37;100.00
51287;BME280;37364;46.974;18.916;2023-12-20T12:44:46;151694.22;;;5.34;100.00
51287;BME280;37364;46.974;18.916;2023-12-20T12:47:20;151680.03;;;5.28;100.00
51287;BME280;37364;46.974;18.916;2023-12-20T12:49:53;151674.84;;;5.26;100.00
51287;BME280;37364;46.974;18.916;2023-12-20T12:52:30;151659.41;;;5.20;100.00
51287;BME280;37364;46.974;18.916;2023-12-20T12:55:03;151603.97;;;4.98;100.00
51287;BME280;37364;46.974;18.916;2023-12-20T12:57:46;151596.19;;;4.95;100.00
51287;BME280;37364;46.974;18.916;2023-12-20T13:00:20;151593.66;;;4.94;100.00
51287;BME280;37364;46.974;18.916;2023-12-20T13:02:57;151557.50;;;4.80;100.00
51287;BME280;37364;46.974;18.916;2023-12-20T13:05:28;151567.81;;;4.84;100.00
51287;BME280;37364;46.974;18.916;2023-12-20T13:08:14;151571.69;;;4.85;100.00